createdAt,value
2018-10-02T00:01:15.769Z,3.60
2018-10-02T00:03:51.113Z,4.03
2018-10-02T00:06:26.729Z,3.80
2018-10-02T00:09:02.308Z,4.23
2018-10-02T00:14:20.250Z,3.87
2018-10-02T00:16:55.905Z,3.53
2018-10-02T00:19:31.749Z,3.92
2018-10-02T00:22:07.530Z,3.50
2018-10-02T00:24:43.129Z,4.08
2018-10-02T00:27:18.726Z,3.92
2018-10-02T00:29:54.301Z,3.55
2018-10-02T00:32:30.105Z,3.80
2018-10-02T00:35:05.550Z,3.60
2018-10-02T00:37:40.925Z,4.00
2018-10-02T00:40:16.760Z,3.50
2018-10-02T00:42:52.311Z,3.92
2018-10-02T00:45:28.013Z,3.77
2018-10-02T00:48:03.309Z,4.00
2018-10-02T00:50:38.725Z,3.80
2018-10-02T00:53:14.361Z,3.65
2018-10-02T00:55:49.944Z,3.10
2018-10-02T00:58:25.513Z,3.47
2018-10-02T01:01:00.778Z,3.40
2018-10-02T01:03:36.349Z,3.50
2018-10-02T01:06:12.144Z,3.42
2018-10-02T01:08:47.297Z,3.13
2018-10-02T01:11:23.070Z,4.00
2018-10-02T01:13:58.777Z,3.47
2018-10-02T01:16:34.504Z,4.10
2018-10-02T01:19:10.909Z,4.00
2018-10-02T01:21:47.085Z,3.85
2018-10-02T01:24:22.532Z,3.60
2018-10-02T01:26:58.149Z,3.95
2018-10-02T01:29:33.329Z,3.27
2018-10-02T01:32:09.332Z,3.50
2018-10-02T01:34:45.149Z,4.00
2018-10-02T01:37:20.521Z,3.20
2018-10-02T01:42:29.745Z,3.30
2018-10-02T01:45:05.333Z,3.47
2018-10-02T01:47:41.149Z,4.00
2018-10-02T01:50:17.777Z,3.60
2018-10-02T01:52:54.345Z,3.53
2018-10-02T01:55:30.048Z,4.20
2018-10-02T01:58:06.134Z,3.80
2018-10-02T02:00:41.756Z,4.13
2018-10-02T02:03:17.082Z,3.43
2018-10-02T02:05:52.533Z,3.90
2018-10-02T02:08:28.453Z,4.00
2018-10-02T02:11:04.151Z,3.60
2018-10-02T02:13:39.797Z,3.97
2018-10-02T02:16:15.797Z,3.85
2018-10-02T02:18:51.293Z,4.00
2018-10-02T02:21:26.802Z,4.47
2018-10-02T02:26:35.809Z,4.50
2018-10-02T02:29:11.175Z,4.30
2018-10-02T02:31:46.825Z,3.80
2018-10-02T02:34:22.177Z,3.80
2018-10-02T02:36:57.361Z,4.47
2018-10-02T02:39:32.968Z,4.17
2018-10-02T02:42:08.353Z,4.23
2018-10-02T02:44:43.937Z,3.70
2018-10-02T02:47:23.146Z,4.20
2018-10-02T02:50:02.902Z,3.90
2018-10-02T02:52:44.247Z,3.53
2018-10-02T02:55:19.969Z,3.90
2018-10-02T02:57:55.877Z,3.93
2018-10-02T03:00:32.378Z,4.00
2018-10-02T03:03:07.965Z,3.90
2018-10-02T03:05:43.853Z,4.20
2018-10-02T03:08:19.192Z,3.72
2018-10-02T03:10:55.561Z,3.70
2018-10-02T03:13:31.188Z,3.90
2018-10-02T03:16:06.617Z,3.73
2018-10-02T03:18:42.190Z,4.20
2018-10-02T03:21:17.911Z,3.93
2018-10-02T03:23:53.556Z,4.30
2018-10-02T03:26:29.019Z,3.70
2018-10-02T03:29:04.475Z,3.80
2018-10-02T03:31:40.038Z,3.70
2018-10-02T03:34:15.601Z,3.75
2018-10-02T03:36:51.203Z,4.15
2018-10-02T03:39:26.597Z,3.57
2018-10-02T03:42:01.973Z,3.63
2018-10-02T03:44:37.377Z,3.80
2018-10-02T03:47:12.561Z,3.93
2018-10-02T03:49:48.533Z,3.67
2018-10-02T03:52:24.207Z,4.22
2018-10-02T03:54:59.378Z,3.33
2018-10-02T03:57:34.854Z,3.80
2018-10-02T04:00:10.591Z,3.70
2018-10-02T04:02:46.241Z,3.98
2018-10-02T04:05:21.913Z,3.87
2018-10-02T04:07:57.405Z,3.70
2018-10-02T04:10:32.831Z,3.50
2018-10-02T04:13:08.056Z,3.33
2018-10-02T04:15:43.915Z,3.73
2018-10-02T04:18:19.590Z,3.47
2018-10-02T04:20:55.232Z,3.80
2018-10-02T04:23:30.945Z,4.17
2018-10-02T04:26:06.645Z,4.13
2018-10-02T04:28:42.226Z,3.85
2018-10-02T04:31:18.132Z,3.87
2018-10-02T04:33:53.863Z,3.70
2018-10-02T04:36:29.677Z,3.70
2018-10-02T04:39:05.390Z,3.70
2018-10-02T04:41:40.978Z,3.80
2018-10-02T04:44:17.717Z,3.52
2018-10-02T04:46:53.279Z,3.58
2018-10-02T04:49:28.856Z,4.00
2018-10-02T04:52:04.413Z,3.90
2018-10-02T04:54:40.038Z,4.13
2018-10-02T04:57:15.577Z,3.70
2018-10-02T04:59:51.243Z,3.80
2018-10-02T05:02:26.664Z,4.10
2018-10-02T05:05:02.425Z,3.92
2018-10-02T05:07:38.002Z,4.67
2018-10-02T05:10:13.894Z,3.80
2018-10-02T05:12:49.239Z,4.00
2018-10-02T05:15:24.580Z,3.80
2018-10-02T05:18:00.228Z,4.40
2018-10-02T05:20:36.121Z,3.90
2018-10-02T05:23:11.618Z,3.93
2018-10-02T05:25:46.907Z,3.90
2018-10-02T05:28:22.427Z,3.72
2018-10-02T05:30:58.099Z,3.85
2018-10-02T05:33:33.451Z,3.87
2018-10-02T05:36:08.861Z,3.63
2018-10-02T05:38:44.897Z,3.70
2018-10-02T05:41:21.075Z,3.87
2018-10-02T05:43:56.857Z,3.77
2018-10-02T05:46:32.594Z,3.53
2018-10-02T05:49:08.304Z,3.80
2018-10-02T05:51:44.149Z,3.50
2018-10-02T05:54:19.634Z,3.90
2018-10-02T05:56:55.258Z,3.53
2018-10-02T05:59:30.617Z,3.47
2018-10-02T06:02:07.041Z,3.92
2018-10-02T06:04:43.002Z,3.55
2018-10-02T06:07:18.685Z,3.67
2018-10-02T06:09:54.177Z,3.70
2018-10-02T06:12:29.488Z,3.90
2018-10-02T06:15:04.981Z,3.70
2018-10-02T06:17:40.648Z,3.60
2018-10-02T06:20:16.297Z,3.90
2018-10-02T06:22:51.884Z,3.57
2018-10-02T06:25:27.654Z,3.90
2018-10-02T06:28:03.320Z,3.70
2018-10-02T06:30:39.258Z,4.03
2018-10-02T06:33:15.441Z,3.90
2018-10-02T06:35:51.109Z,3.90
2018-10-02T06:38:26.983Z,3.90
2018-10-02T06:41:02.660Z,3.97
2018-10-02T06:43:38.524Z,3.52
2018-10-02T06:46:15.602Z,4.37
2018-10-02T06:48:51.273Z,3.80
2018-10-02T06:51:26.991Z,3.90
2018-10-02T06:54:02.655Z,4.05
2018-10-02T06:56:38.295Z,3.62
2018-10-02T06:59:14.249Z,3.67
2018-10-02T07:01:49.685Z,3.60
2018-10-02T07:04:25.129Z,3.70
2018-10-02T07:07:00.659Z,4.17
2018-10-02T07:09:36.283Z,4.00
2018-10-02T07:12:12.069Z,4.47
2018-10-02T07:14:48.708Z,3.53
2018-10-02T07:17:24.500Z,3.20
2018-10-02T07:20:00.258Z,2.80
2018-10-02T07:22:35.663Z,3.00
2018-10-02T07:25:11.211Z,2.40
2018-10-02T07:27:47.250Z,2.47
2018-10-02T07:30:23.182Z,2.33
2018-10-02T07:32:58.690Z,2.33
2018-10-02T07:35:34.315Z,1.90
2018-10-02T07:40:42.274Z,1.82
2018-10-02T07:43:18.091Z,1.80
2018-10-02T07:45:53.841Z,2.00
2018-10-02T07:48:29.311Z,1.80
2018-10-02T07:51:05.144Z,1.73
2018-10-02T07:53:41.017Z,1.70
2018-10-02T07:56:16.938Z,1.60
2018-10-02T07:58:52.476Z,1.62
2018-10-02T08:01:28.137Z,1.80
2018-10-02T08:04:03.705Z,1.70
2018-10-02T08:06:39.729Z,1.77
2018-10-02T08:09:15.901Z,1.87
2018-10-02T08:11:51.964Z,1.80
2018-10-02T08:14:28.017Z,1.70
2018-10-02T08:17:04.009Z,1.60
2018-10-02T08:19:41.288Z,1.80
2018-10-02T08:22:17.277Z,1.95
2018-10-02T08:24:53.263Z,1.50
2018-10-02T08:27:29.133Z,1.60
2018-10-02T08:30:05.399Z,1.60
2018-10-02T08:32:42.033Z,1.52
2018-10-02T08:35:18.303Z,1.70
2018-10-02T08:37:54.317Z,1.40
2018-10-02T08:40:31.134Z,1.22
2018-10-02T08:43:07.109Z,1.50
2018-10-02T08:45:42.981Z,1.40
2018-10-02T08:48:19.196Z,1.30
2018-10-02T08:50:55.356Z,1.50
2018-10-02T08:53:31.568Z,1.47
2018-10-02T08:56:07.503Z,1.50
2018-10-02T08:58:43.526Z,1.65
2018-10-02T09:01:19.136Z,1.20
2018-10-02T09:03:54.909Z,1.40
2018-10-02T09:06:31.049Z,1.30
2018-10-02T09:09:07.941Z,1.50
2018-10-02T09:11:43.957Z,2.10
2018-10-02T09:14:20.065Z,1.72
2018-10-02T09:16:56.104Z,2.12
2018-10-02T09:19:31.964Z,1.80
2018-10-02T09:22:08.488Z,1.85
2018-10-02T09:24:44.579Z,1.90
2018-10-02T09:27:20.559Z,2.10
2018-10-02T09:30:00.731Z,1.80
2018-10-02T09:32:40.733Z,1.80
2018-10-02T09:35:20.516Z,2.60
2018-10-02T09:38:00.514Z,2.43
2018-10-02T09:40:40.726Z,1.93
2018-10-02T09:44:20.803Z,1.70
2018-10-02T09:46:56.530Z,1.67
2018-10-02T09:49:32.557Z,1.50
2018-10-02T09:52:08.520Z,1.40
2018-10-02T09:54:44.607Z,1.40
2018-10-02T09:57:20.515Z,1.60
2018-10-02T09:59:56.105Z,2.10
2018-10-02T10:02:38.580Z,1.80
2018-10-02T10:05:14.558Z,1.50
2018-10-02T10:07:50.559Z,1.80
2018-10-02T10:10:26.701Z,1.77
2018-10-02T10:13:02.976Z,1.72
2018-10-02T10:15:39.173Z,1.90
2018-10-02T10:18:15.181Z,2.30
2018-10-02T10:20:51.793Z,2.10
2018-10-02T10:30:22.349Z,2.08
2018-10-02T10:32:58.526Z,1.90
2018-10-02T10:35:34.664Z,2.03
2018-10-02T10:38:10.686Z,1.70
2018-10-02T10:40:47.031Z,1.75
2018-10-02T10:43:23.146Z,1.50
2018-10-02T10:45:59.300Z,1.70
2018-10-02T10:48:36.266Z,1.87
2018-10-02T10:51:12.267Z,2.00
2018-10-02T10:53:48.738Z,1.98
2018-10-02T10:56:25.051Z,2.00
2018-10-02T10:59:01.241Z,2.10
2018-10-02T11:01:37.370Z,1.50
2018-10-02T11:04:13.035Z,2.00
2018-10-02T11:06:49.250Z,1.70
2018-10-02T11:09:25.417Z,1.60
2018-10-02T11:12:01.546Z,1.70
2018-10-02T11:14:37.541Z,1.60
2018-10-02T11:17:14.546Z,1.60
2018-10-02T11:19:50.584Z,1.50
2018-10-02T11:22:26.556Z,1.62
2018-10-02T11:25:02.553Z,1.40
2018-10-02T11:27:38.557Z,1.47
2018-10-02T11:30:14.746Z,1.70
2018-10-02T11:32:50.553Z,1.90
2018-10-02T11:35:27.595Z,1.90
2018-10-02T11:38:04.357Z,1.70
2018-10-02T11:40:40.185Z,1.87
2018-10-02T11:43:21.070Z,1.70
2018-10-02T11:46:06.221Z,2.00
2018-10-02T11:48:42.270Z,1.73
2018-10-02T11:51:18.286Z,1.87
2018-10-02T11:53:54.355Z,1.90
2018-10-02T11:56:30.261Z,1.80
2018-10-02T11:59:06.300Z,1.80
2018-10-02T12:01:45.975Z,1.57
2018-10-02T12:04:22.219Z,1.90
2018-10-02T12:06:58.196Z,1.63
2018-10-02T12:09:34.374Z,1.57
2018-10-02T12:12:10.357Z,1.70
2018-10-02T12:14:46.410Z,1.60
2018-10-02T12:17:28.397Z,1.70
2018-10-02T12:20:09.857Z,1.60
2018-10-02T12:22:45.742Z,1.50
2018-10-02T12:25:21.571Z,1.52
2018-10-02T12:27:57.570Z,1.87
2018-10-02T12:30:37.402Z,1.30
2018-10-02T12:33:17.779Z,1.43
2018-10-02T12:35:53.754Z,1.42
2018-10-02T12:38:29.817Z,1.80
2018-10-02T12:41:05.764Z,1.90
2018-10-02T12:43:46.252Z,1.60
2018-10-02T12:46:22.411Z,1.70
2018-10-02T12:48:58.584Z,1.50
2018-10-02T12:51:34.582Z,1.67
2018-10-02T12:54:10.584Z,1.40
2018-10-02T12:56:46.409Z,2.20
2018-10-02T12:59:22.257Z,2.45
2018-10-02T13:02:05.171Z,2.22
2018-10-02T13:04:59.025Z,1.80
2018-10-02T13:07:35.379Z,1.80
2018-10-02T13:10:11.270Z,1.98
2018-10-02T13:12:47.422Z,2.00
2018-10-02T13:15:23.590Z,1.72
2018-10-02T13:18:03.654Z,1.40
2018-10-02T13:20:39.765Z,1.70
2018-10-02T13:23:27.601Z,1.55
2018-10-02T13:26:03.593Z,1.77
2018-10-02T13:28:39.602Z,1.60
2018-10-02T13:45:24.783Z,2.30
2018-10-02T13:48:01.176Z,1.70
2018-10-02T13:50:37.126Z,2.00
2018-10-02T13:53:13.402Z,1.72
2018-10-02T13:55:49.429Z,1.75
2018-10-02T13:58:25.422Z,2.08
2018-10-02T14:01:01.410Z,1.60
2018-10-02T14:03:37.613Z,1.80
2018-10-02T14:06:13.813Z,1.57
2018-10-02T14:08:49.610Z,1.40
2018-10-02T14:11:25.609Z,1.10
2018-10-02T14:16:48.818Z,1.05
2018-10-02T14:19:24.642Z,1.10
2018-10-02T14:22:00.443Z,0.95
2018-10-02T14:24:36.632Z,1.00
2018-10-02T14:27:12.617Z,0.80
2018-10-02T14:29:48.444Z,0.70
2018-10-02T14:32:24.430Z,0.70
2018-10-02T14:35:01.106Z,0.80
2018-10-02T14:37:37.062Z,0.60
2018-10-02T14:40:18.265Z,0.70
2018-10-02T14:42:54.455Z,0.60
2018-10-02T14:45:30.786Z,0.50
2018-10-02T14:48:06.650Z,0.53
2018-10-02T14:50:42.453Z,0.50
2018-10-02T14:53:18.424Z,0.60
2018-10-02T14:55:54.425Z,0.50
2018-10-02T14:58:30.437Z,0.60
2018-10-02T15:01:06.626Z,1.77
2018-10-02T15:03:42.833Z,2.70
2018-10-02T15:06:18.797Z,2.60
2018-10-02T15:08:54.672Z,2.30
2018-10-02T15:11:30.462Z,1.90
2018-10-02T15:14:06.411Z,1.40
2018-10-02T15:16:42.480Z,2.30
2018-10-02T15:19:18.465Z,1.80
2018-10-02T15:21:54.377Z,2.10
2018-10-02T15:24:30.639Z,1.20
2018-10-02T15:27:06.637Z,1.57
2018-10-02T15:29:42.461Z,1.70
2018-10-02T15:32:18.378Z,1.50
2018-10-02T15:34:54.424Z,2.00
2018-10-02T15:37:31.681Z,1.80
2018-10-02T15:40:07.821Z,1.70
2018-10-02T15:42:44.198Z,1.42
2018-10-02T15:45:20.235Z,1.50
2018-10-02T15:47:56.089Z,1.60
2018-10-02T15:50:32.504Z,1.45
2018-10-02T15:53:08.645Z,1.33
2018-10-02T15:55:44.648Z,1.80
2018-10-02T16:00:55.463Z,1.70
2018-10-02T16:03:31.710Z,1.77
2018-10-02T16:06:07.650Z,1.17
2018-10-02T16:08:43.863Z,1.87
2018-10-02T16:11:19.746Z,1.40
2018-10-02T16:13:55.673Z,1.40
2018-10-02T16:16:31.309Z,1.10
2018-10-02T16:19:07.172Z,1.10
2018-10-02T16:21:43.240Z,1.30
2018-10-02T16:24:19.189Z,1.30
2018-10-02T16:26:55.233Z,1.40
2018-10-02T16:29:31.383Z,1.20
2018-10-02T16:32:07.485Z,1.35
2018-10-02T16:37:40.299Z,1.27
2018-10-02T16:40:16.595Z,1.00
2018-10-02T16:42:52.492Z,1.30
2018-10-02T16:45:28.408Z,1.23
2018-10-02T16:48:04.674Z,1.17
2018-10-02T16:50:40.679Z,1.40
2018-10-02T16:53:16.497Z,1.40
2018-10-02T16:55:52.445Z,1.20
2018-10-02T16:58:28.483Z,1.40
2018-10-02T17:01:04.505Z,1.15
2018-10-02T17:03:40.499Z,1.13
2018-10-02T17:06:16.501Z,1.00
2018-10-02T17:08:52.502Z,1.33
2018-10-02T17:11:28.675Z,1.10
2018-10-02T17:14:04.470Z,1.23
2018-10-02T17:16:40.474Z,1.20
2018-10-02T17:19:17.102Z,1.60
2018-10-02T17:21:53.337Z,1.32
2018-10-02T17:24:29.393Z,1.15
2018-10-02T17:27:05.118Z,1.20
2018-10-02T17:29:41.185Z,1.07
2018-10-02T17:32:17.428Z,1.80
2018-10-02T17:34:53.473Z,1.30
2018-10-02T17:37:29.504Z,2.10
2018-10-02T17:40:05.696Z,1.40
2018-10-02T17:42:42.501Z,1.40
2018-10-02T17:47:56.016Z,2.00
2018-10-02T17:50:31.891Z,1.30
2018-10-02T17:53:08.280Z,1.92
2018-10-02T17:55:44.270Z,1.30
2018-10-02T17:58:20.498Z,1.60
2018-10-02T18:00:56.534Z,1.75
2018-10-02T18:03:33.503Z,1.80
2018-10-02T18:06:09.888Z,1.75
2018-10-02T18:08:45.868Z,1.52
2018-10-02T18:11:21.706Z,1.50
2018-10-02T18:13:57.525Z,1.67
2018-10-02T18:16:33.698Z,1.70
2018-10-02T18:19:09.702Z,1.50
2018-10-02T18:21:45.527Z,2.40
2018-10-02T18:24:21.525Z,2.27
2018-10-02T18:26:57.868Z,1.80
2018-10-02T18:29:34.148Z,3.00
2018-10-02T18:32:10.335Z,2.37
2018-10-02T18:34:46.853Z,2.08
2018-10-02T18:37:23.368Z,2.10
2018-10-02T18:39:59.453Z,2.53
2018-10-02T18:42:35.461Z,2.30
2018-10-02T18:45:11.457Z,2.60
2018-10-02T18:47:49.297Z,2.37
2018-10-02T18:50:25.466Z,2.40
2018-10-02T18:53:01.373Z,2.67
2018-10-02T18:55:37.548Z,2.80
2018-10-02T18:58:13.714Z,2.90
2018-10-02T19:00:49.718Z,2.80
2018-10-02T19:03:25.536Z,2.80
2018-10-02T19:06:01.582Z,3.40
2018-10-02T19:08:41.459Z,3.43
2018-10-02T19:11:21.307Z,3.33
2018-10-02T19:13:57.342Z,3.33
2018-10-02T19:16:34.897Z,2.90
2018-10-02T19:19:14.298Z,2.77
2018-10-02T19:21:50.299Z,2.65
2018-10-02T19:24:26.362Z,3.27
2018-10-02T19:27:02.681Z,3.07
2018-10-02T19:29:38.733Z,2.70
2018-10-02T19:32:17.336Z,2.57
2018-10-02T19:34:53.716Z,2.53
2018-10-02T19:37:33.748Z,2.70
2018-10-02T19:40:09.571Z,2.85
2018-10-02T19:42:45.761Z,2.60
2018-10-02T19:45:25.681Z,2.33
2018-10-02T19:48:01.418Z,3.00
2018-10-02T19:50:37.221Z,2.33
2018-10-02T19:53:13.434Z,2.40
2018-10-02T19:55:49.412Z,2.70
2018-10-02T19:58:25.363Z,2.92
2018-10-02T20:01:01.122Z,2.50
2018-10-02T20:03:37.333Z,2.50
2018-10-02T20:06:13.456Z,2.92
2018-10-02T20:08:49.741Z,2.55
2018-10-02T20:11:25.776Z,2.62
2018-10-02T20:14:01.914Z,2.17
2018-10-02T20:16:38.329Z,1.82
2018-10-02T20:19:14.740Z,2.00
2018-10-02T20:21:50.748Z,2.10
2018-10-02T20:24:26.329Z,1.90
2018-10-02T20:27:02.354Z,1.83
2018-10-02T20:29:38.348Z,1.70
2018-10-02T20:32:14.299Z,1.67
2018-10-02T20:34:50.351Z,1.77
2018-10-02T20:37:26.759Z,1.60
2018-10-02T20:40:02.614Z,1.50
2018-10-02T20:42:38.767Z,1.60
2018-10-02T20:45:14.809Z,1.70
2018-10-02T20:47:50.967Z,1.80
2018-10-02T20:50:28.226Z,1.57
2018-10-02T20:53:05.046Z,1.98
2018-10-02T20:55:41.288Z,1.90
2018-10-02T20:58:17.233Z,2.02
2018-10-02T21:00:54.303Z,2.00
2018-10-02T21:03:30.231Z,1.90
2018-10-02T21:06:06.474Z,1.90
2018-10-02T21:08:42.493Z,1.73
2018-10-02T21:11:18.501Z,1.60
2018-10-02T21:13:54.587Z,1.72
2018-10-02T21:16:30.595Z,1.60
2018-10-02T21:19:06.972Z,1.62
2018-10-02T21:21:42.642Z,1.60
2018-10-02T21:24:18.572Z,1.70
2018-10-02T21:26:54.724Z,1.80
2018-10-02T21:29:30.775Z,1.50
2018-10-02T21:32:06.725Z,1.60
2018-10-02T21:34:42.707Z,1.80
2018-10-02T21:37:18.990Z,1.80
2018-10-02T21:39:55.453Z,1.60
2018-10-02T21:42:31.429Z,1.85
2018-10-02T21:45:07.591Z,1.50
2018-10-02T21:47:43.431Z,1.57
2018-10-02T21:50:19.606Z,1.70
2018-10-02T21:52:55.510Z,1.60
2018-10-02T21:55:31.615Z,1.40
2018-10-02T21:58:07.615Z,1.75
2018-10-02T22:00:43.427Z,1.65
2018-10-02T22:03:19.609Z,1.45
2018-10-02T22:05:55.605Z,1.80
2018-10-02T22:08:31.626Z,1.98
2018-10-02T22:11:07.451Z,1.85
2018-10-02T22:13:43.634Z,1.87
2018-10-02T22:16:19.800Z,1.40
2018-10-02T22:18:55.651Z,1.50
2018-10-02T22:21:31.956Z,1.60
2018-10-02T22:24:40.606Z,1.40
2018-10-02T22:27:16.614Z,1.30
2018-10-02T22:29:52.630Z,1.20
2018-10-02T22:32:28.506Z,1.30
2018-10-02T22:35:04.635Z,1.10
2018-10-02T22:37:40.623Z,1.40
2018-10-02T22:40:16.628Z,1.10
2018-10-02T22:42:52.613Z,1.20
2018-10-02T22:45:28.623Z,1.40
2018-10-02T22:48:04.630Z,1.15
2018-10-02T22:50:40.457Z,1.30
2018-10-02T22:53:16.639Z,1.20
2018-10-02T22:55:52.626Z,3.00
2018-10-02T22:58:28.817Z,4.03
2018-10-02T23:01:04.633Z,3.93
2018-10-02T23:03:40.633Z,3.60
2018-10-02T23:06:16.638Z,3.17
2018-10-02T23:08:52.614Z,3.30
2018-10-02T23:11:28.684Z,2.98
2018-10-02T23:14:04.482Z,3.60
2018-10-02T23:16:40.478Z,3.20
2018-10-02T23:19:16.241Z,3.13
2018-10-02T23:21:51.817Z,3.17
2018-10-02T23:24:27.633Z,2.90
2018-10-02T23:27:03.643Z,3.20
2018-10-02T23:29:39.817Z,3.10
2018-10-02T23:32:15.773Z,3.30
2018-10-02T23:34:51.983Z,3.15
2018-10-02T23:37:28.388Z,3.10
2018-10-02T23:40:04.732Z,3.13
2018-10-02T23:42:40.836Z,3.10
2018-10-02T23:45:17.342Z,3.10
2018-10-02T23:47:53.984Z,3.50
2018-10-02T23:50:30.676Z,3.25
2018-10-02T23:53:07.987Z,3.42
2018-10-02T23:55:44.319Z,3.40
2018-10-02T23:58:20.858Z,2.90
